Time;durP1;ratioP1;P1;durP2;ratioP2;P2;SDS_P1;SDS_P2;PMS_P1;PMS_P2;Temp;Humidity;BMP_temperature;BMP_pressure;BME280_temperature;BME280_humidity;BME280_pressure;Samples;Min_cycle;Max_cycle;Signal;HPM_P1;HPM_P2
2022/02/05 00:11:08;;;;;;;;;;;17.40;34.00;17.60;93990.00;;;;10426762;28;45168;-77
2022/02/05 00:42:39;;;;;;;0.17;0.10;;;17.30;32.80;17.40;94009.00;;;;10386582;28;45698;-77
2022/02/05 00:47:41;;;;;;;0.10;0.00;;;17.30;32.60;17.40;94010.00;;;;10383815;28;45506;-77
2022/02/05 00:52:46;;;;;;;0.17;0.05;;;17.30;32.60;17.40;94032.00;;;;10383264;28;48162;-77
2022/02/05 00:57:47;;;;;;;0.17;0.10;;;17.30;32.70;17.40;94013.00;;;;10383950;28;45456;-77
2022/02/05 01:02:48;;;;;;;0.20;0.10;;;17.20;32.60;17.40;94030.00;;;;10382429;28;47245;-77
2022/02/05 01:07:49;;;;;;;0.25;0.20;;;17.20;32.50;17.30;94042.00;;;;10382475;28;48272;-77
2022/02/05 01:12:55;;;;;;;0.00;0.00;;;17.20;32.50;17.40;94049.00;;;;10382306;28;48454;-77
2022/02/05 01:18:02;;;;;;;0.10;0.10;;;17.20;32.40;17.30;94055.00;;;;10383450;28;45454;-77
2022/02/05 01:23:07;;;;;;;0.20;0.10;;;17.20;32.40;17.30;94070.00;;;;10382522;28;48224;-77
2022/02/05 01:28:21;;;;;;;0.47;0.10;;;17.10;32.10;17.30;94079.00;;;;10382132;28;47162;-77
2022/02/05 02:04:48;;;;;;;0.32;0.13;;;17.00;30.90;17.20;94125.00;;;;10383606;28;45291;-77
2022/02/05 02:05:33;;;;;;;0.10;0.00;;;17.00;30.70;17.20;94110.00;;;;10383634;28;46233;-76
2022/02/05 02:10:59;;;;;;;0.40;0.10;;;17.00;30.30;17.10;94118.00;;;;10380497;28;47491;-77
2022/02/05 02:31:28;;;;;;;0.32;0.08;;;16.80;29.70;17.10;94127.00;;;;10439708;28;45266;-77
2022/02/05 02:36:46;;;;;;;0.55;0.20;;;16.80;29.70;17.10;94151.00;;;;10405298;28;47458;-77
2022/02/05 02:41:59;;;;;;;0.45;0.00;;;16.80;29.60;17.00;94135.00;;;;10406995;28;47360;-77
2022/02/05 02:47:00;;;;;;;0.73;0.30;;;16.80;29.60;17.10;94142.00;;;;10406041;28;48077;-77
2022/02/05 02:57:25;;;;;;;0.32;0.10;;;16.90;29.60;17.10;94149.00;;;;10423760;28;45094;-77
2022/02/05 03:02:27;;;;;;;1.20;0.13;;;16.90;29.50;17.10;94150.00;;;;10404611;28;48172;-77
2022/02/05 03:07:28;;;;;;;0.28;0.10;;;16.90;29.50;17.10;94164.00;;;;10403643;28;47447;-77
2022/02/05 03:12:28;;;;;;;1.25;0.20;;;16.90;29.20;17.10;94162.00;;;;10403699;28;47461;-77
2022/02/05 03:17:38;;;;;;;0.20;0.03;;;16.90;29.80;17.10;94168.00;;;;10403539;28;47398;-77
2022/02/05 03:22:39;;;;;;;0.20;0.10;;;17.00;29.90;17.20;94162.00;;;;10380593;28;47538;-77
2022/02/05 03:27:39;;;;;;;0.35;0.20;;;17.00;30.10;17.20;94162.00;;;;10378446;28;48314;-77
2022/02/05 03:32:40;;;;;;;0.50;0.20;;;17.00;30.30;17.20;94180.00;;;;10384828;28;46997;-76
2022/02/05 03:37:41;;;;;;;0.73;0.20;;;17.10;30.40;17.20;94191.00;;;;10403364;28;45542;-77
2022/02/05 03:42:41;;;;;;;0.52;0.10;;;17.10;30.40;17.20;94186.00;;;;10385766;28;45467;-77
2022/02/05 03:47:42;;;;;;;0.28;0.10;;;17.10;30.30;17.30;94181.00;;;;10385658;28;46772;-76
2022/02/05 03:52:44;;;;;;;0.22;0.10;;;17.10;30.40;17.30;94190.00;;;;10384947;28;47341;-76
2022/02/05 03:57:46;;;;;;;0.00;0.00;;;17.20;30.50;17.30;94190.00;;;;10385002;28;47047;-77
2022/02/05 04:02:46;;;;;;;0.10;0.00;;;17.20;30.50;17.40;94167.00;;;;10386178;28;47411;-76
2022/02/05 04:07:51;;;;;;;0.32;0.10;;;17.30;30.50;17.40;94189.00;;;;10385226;28;46943;-76
2022/02/05 04:18:11;;;;;;;0.15;0.10;;;17.40;30.40;17.50;94204.00;;;;10388966;28;45152;-76
2022/02/05 04:23:11;;;;;;;1.35;0.10;;;17.40;30.40;17.50;94229.00;;;;10384319;28;47929;-76
2022/02/05 04:28:12;;;;;;;0.22;0.10;;;17.50;29.90;17.50;94232.00;;;;10385032;28;45199;-76
2022/02/05 04:33:13;;;;;;;0.60;0.40;;;17.40;29.60;17.50;94240.00;;;;10384472;28;48409;-76
2022/02/05 04:38:15;;;;;;;0.65;0.35;;;17.40;29.10;17.40;94253.00;;;;10367914;28;47483;-76
2022/02/05 04:43:47;;;;;;;1.50;0.30;;;17.40;28.40;17.40;94238.00;;;;10383512;28;47420;-76
2022/02/05 05:09:46;;;;;;;0.28;0.10;;;17.20;27.00;17.30;94264.00;;;;10383497;28;45109;-76
2022/02/05 05:20:04;;;;;;;2.15;0.63;;;17.10;27.10;17.20;94273.00;;;;10388954;28;45132;-76
2022/02/05 05:25:05;;;;;;;2.63;1.15;;;17.10;27.50;17.20;94299.00;;;;10423796;28;45361;-76
2022/02/05 05:30:07;;;;;;;2.95;1.45;;;17.10;27.40;17.20;94287.00;;;;10406762;28;47622;-76
2022/02/05 05:35:09;;;;;;;2.22;1.17;;;17.10;26.90;17.20;94284.00;;;;10407003;28;48167;-76
2022/02/05 05:40:11;;;;;;;2.05;0.90;;;17.10;26.90;17.20;94293.00;;;;10407531;28;47058;-76
2022/02/05 05:50:57;;;;;;;1.50;0.30;;;17.00;26.40;17.10;94308.00;;;;10423103;28;45759;-76
2022/02/05 05:55:41;;;;;;;1.92;0.50;;;17.00;26.50;17.10;94308.00;;;;10424511;28;46305;-76
2022/02/05 06:00:43;;;;;;;1.03;0.50;;;17.00;26.30;17.10;94312.00;;;;10405741;28;47389;-76
2022/02/05 06:05:44;;;;;;;1.83;0.50;;;16.90;26.30;17.10;94326.00;;;;10405873;28;47175;-76
2022/02/05 06:10:45;;;;;;;0.88;0.40;;;16.90;26.20;17.10;94342.00;;;;10405798;28;47037;-76
2022/02/05 06:15:47;;;;;;;1.23;0.30;;;16.90;26.20;17.10;94342.00;;;;10422103;28;45380;-76
2022/02/05 06:20:47;;;;;;;3.53;2.08;;;16.90;26.10;17.00;94344.00;;;;10413029;28;48063;-76
2022/02/05 06:25:48;;;;;;;2.50;1.45;;;16.90;26.60;17.00;94351.00;;;;10380634;28;47732;-76
2022/02/05 06:30:49;;;;;;;2.30;1.13;;;16.80;26.00;17.00;94359.00;;;;10380121;28;47433;-76
2022/02/05 06:35:49;;;;;;;1.50;0.77;;;16.80;26.20;17.00;94362.00;;;;10380250;28;46947;-76
2022/02/05 06:40:52;;;;;;;0.70;0.43;;;16.80;26.00;17.00;94362.00;;;;10380069;28;48365;-76
2022/02/05 06:45:53;;;;;;;1.40;0.82;;;16.80;26.10;16.90;94368.00;;;;10379710;28;47503;-76
2022/02/05 06:50:53;;;;;;;1.83;0.80;;;16.80;25.90;16.90;94371.00;;;;10379973;28;45381;-75
2022/02/05 06:55:54;;;;;;;2.13;0.60;;;16.70;25.90;16.90;94385.00;;;;10379920;28;45411;-75
2022/02/05 07:00:55;;;;;;;0.77;0.40;;;16.60;25.90;16.90;94388.00;;;;10379557;28;46492;-76
2022/02/05 07:05:56;;;;;;;1.52;0.50;;;16.60;26.20;16.90;94400.00;;;;10396980;28;46446;-76
2022/02/05 07:10:57;;;;;;;1.65;0.60;;;16.60;26.10;16.90;94410.00;;;;10378442;28;48250;-76
2022/02/05 07:21:21;;;;;;;3.25;1.88;;;16.70;26.10;16.90;94414.00;;;;10392308;28;45306;-76
2022/02/05 07:32:00;;;;;;;1.63;0.75;;;16.70;26.20;16.90;94418.00;;;;10423085;28;45084;-76
2022/02/05 07:37:03;;;;;;;1.42;0.57;;;16.70;26.50;16.90;94435.00;;;;10403300;28;47311;-75
2022/02/05 07:42:04;;;;;;;0.85;0.50;;;16.70;26.30;17.00;94428.00;;;;10403511;28;47447;-76
2022/02/05 07:47:05;;;;;;;1.02;0.50;;;16.80;26.50;17.00;94437.00;;;;10385058;28;47826;-76
2022/02/05 07:52:07;;;;;;;3.40;1.40;;;16.80;26.50;17.00;94433.00;;;;10344548;28;48190;-76
2022/02/05 07:57:16;;;;;;;2.95;1.30;;;16.80;26.50;17.00;94450.00;;;;10321188;28;48239;-76
2022/02/05 08:02:21;;;;;;;2.10;0.95;;;16.80;26.50;17.00;94457.00;;;;10321324;28;47140;-76
2022/02/05 08:07:22;;;;;;;2.53;0.70;;;16.80;26.80;17.00;94464.00;;;;10278399;28;47607;-76
2022/02/05 08:12:24;;;;;;;0.77;0.52;;;16.90;26.80;17.00;94471.00;;;;10310715;28;45759;-76
2022/02/05 08:17:28;;;;;;;1.00;0.55;;;16.90;26.80;17.10;94463.00;;;;10341219;28;45255;-76
2022/02/05 08:22:29;;;;;;;24.02;13.02;;;16.90;26.80;17.10;94479.00;;;;10350040;28;47042;-76
2022/02/05 08:27:30;;;;;;;20.13;11.60;;;16.90;26.80;17.00;94471.00;;;;10368730;28;46694;-73
2022/02/05 08:32:31;;;;;;;10.88;5.82;;;17.00;27.00;17.10;94457.00;;;;10384811;28;47338;-74
2022/02/05 08:37:37;;;;;;;6.28;3.92;;;17.00;27.50;17.10;94490.00;;;;10367736;28;48183;-75
2022/02/05 08:42:38;;;;;;;5.47;2.85;;;16.90;27.30;17.10;94477.00;;;;10367877;28;47225;-75
2022/02/05 08:47:40;;;;;;;3.17;2.13;;;17.00;27.20;17.10;94492.00;;;;10367866;28;46874;-75
2022/02/05 08:52:41;;;;;;;2.92;2.13;;;16.90;27.50;17.10;94495.00;;;;10367691;28;47683;-76
2022/02/05 08:57:41;;;;;;;2.58;1.30;;;17.00;27.30;17.10;94494.00;;;;10367109;28;47413;-76
2022/02/05 09:03:10;;;;;;;2.10;1.20;;;17.00;27.40;17.00;94483.00;;;;10367887;28;46960;-76
2022/02/05 09:08:10;;;;;;;2.08;1.08;;;17.00;27.70;17.10;94504.00;;;;10385966;28;46091;-76
2022/02/05 09:13:24;;;;;;;;;;;17.00;27.90;17.10;94507.00;;;;10367812;28;47449;-76
2022/02/05 09:18:27;;;;;;;1.63;0.60;;;17.00;27.90;17.10;94510.00;;;;10398298;28;46929;-76
2022/02/05 09:23:28;;;;;;;2.00;0.57;;;17.00;28.40;17.10;94504.00;;;;10336502;28;47196;-76
2022/02/05 09:28:29;;;;;;;6.05;0.40;;;17.00;27.90;17.10;94498.00;;;;10325615;28;47391;-76
2022/02/05 09:33:29;;;;;;;2.92;0.50;;;17.00;27.90;17.10;94496.00;;;;10341876;28;45360;-76
2022/02/05 09:38:30;;;;;;;0.82;0.40;;;17.00;28.00;17.20;94501.00;;;;10325525;28;47191;-75
2022/02/05 09:43:31;;;;;;;1.83;0.70;;;17.10;28.20;17.20;94525.00;;;;10324866;28;47148;-76
2022/02/05 09:48:33;;;;;;;1.48;0.52;;;17.10;28.30;17.20;94523.00;;;;10324804;28;47270;-76
2022/02/05 09:53:35;;;;;;;1.88;0.40;;;17.10;28.40;17.20;94534.00;;;;10324439;28;47292;-76
2022/02/05 09:58:36;;;;;;;1.55;0.80;;;17.10;28.50;17.20;94528.00;;;;10324410;28;47597;-75
2022/02/05 10:03:38;;;;;;;4.25;0.30;;;17.10;28.60;17.20;94521.00;;;;10348344;28;45457;-76
2022/02/05 10:08:54;;;;;;;1.33;0.40;;;17.10;28.70;17.20;94522.00;;;;10398430;28;46292;-76
2022/02/05 10:14:11;;;;;;;1.10;0.30;;;17.10;28.80;17.20;94523.00;;;;10343307;28;47649;-75
2022/02/05 10:19:12;;;;;;;2.83;0.30;;;17.20;28.70;17.30;94536.00;;;;10325909;28;46901;-76
2022/02/05 10:24:13;;;;;;;4.28;0.50;;;17.20;29.00;17.40;94531.00;;;;10362032;28;47974;-77
2022/02/05 10:29:17;;;;;;;2.20;0.50;;;17.30;29.10;17.40;94542.00;;;;10366141;28;46943;-75
2022/02/05 10:34:17;;;;;;;1.42;0.50;;;17.40;29.20;17.50;94536.00;;;;10365755;28;47462;-75
2022/02/05 10:39:30;;;;;;;1.25;0.50;;;17.50;29.10;17.50;94540.00;;;;10361153;28;45331;-75
2022/02/05 10:44:32;;;;;;;2.45;0.40;;;17.60;29.20;17.60;94527.00;;;;10326176;28;46862;-75
2022/02/05 10:49:46;;;;;;;2.72;0.45;;;17.70;29.10;17.60;94541.00;;;;10325411;28;46995;-75
2022/02/05 10:55:01;;;;;;;1.45;0.40;;;17.60;29.10;17.60;94537.00;;;;10342877;28;45565;-75
2022/02/05 11:05:14;;;;;;;1.08;0.30;;;17.60;29.00;17.60;94542.00;;;;10326217;28;47185;-75
2022/02/05 11:05:50;;;;;;;0.55;0.20;;;17.60;29.00;17.50;94550.00;;;;10344516;28;46111;-75
2022/02/05 11:21:02;;;;;;;3.65;0.85;;;17.70;28.90;17.60;94550.00;;;;10373104;28;45142;-75
2022/02/05 11:26:05;;;;;;;2.95;0.70;;;17.70;28.90;17.70;94525.00;;;;10325181;28;48431;-75
2022/02/05 11:31:44;;;;;;;2.22;0.47;;;17.70;28.90;17.70;94547.00;;;;10340754;28;45322;-75
2022/02/05 11:37:06;;;;;;;1.08;0.32;;;17.70;28.90;17.70;94534.00;;;;10326585;28;47148;-75
2022/02/05 11:42:29;;;;;;;0.85;0.15;;;17.70;28.80;17.70;94539.00;;;;10324524;28;46833;-75
2022/02/05 11:47:31;;;;;;;0.98;0.20;;;17.70;28.80;17.70;94551.00;;;;10324327;28;46703;-75
2022/02/05 11:52:43;;;;;;;1.15;0.40;;;17.70;28.80;17.70;94541.00;;;;10328583;28;47382;-75
2022/02/05 11:57:44;;;;;;;0.50;0.20;;;17.70;28.90;17.60;94538.00;;;;10349393;28;48207;-74
2022/02/05 12:02:59;;;;;;;2.92;0.30;;;17.70;28.90;17.70;94530.00;;;;10347288;28;46972;-77
2022/02/05 12:08:06;;;;;;;1.00;0.25;;;17.70;28.90;17.80;94534.00;;;;10331172;28;47910;-78
2022/02/05 12:13:40;;;;;;;1.25;0.57;;;17.90;28.80;17.90;94540.00;;;;10345382;28;47130;-77
2022/02/05 12:19:13;;;;;;;1.23;0.40;;;18.00;28.80;17.90;94549.00;;;;10353345;28;45560;-76
2022/02/05 12:24:35;;;;;;;2.85;0.60;;;18.00;28.50;17.80;94529.00;;;;10334635;28;46917;-76
2022/02/05 12:29:36;;;;;;;1.63;0.60;;;17.90;28.50;17.70;94519.00;;;;10333499;28;47846;-75
2022/02/05 12:34:38;;;;;;;4.43;0.73;;;17.80;28.40;17.80;94521.00;;;;10330998;28;46832;-75
2022/02/05 12:39:39;;;;;;;1.42;0.50;;;17.80;28.50;17.70;94504.00;;;;10354602;28;47070;-75
2022/02/05 12:44:42;;;;;;;2.42;0.60;;;17.80;28.60;17.70;94522.00;;;;10327867;28;47202;-76
2022/02/05 12:54:51;;;;;;;1.13;0.25;;;17.80;28.50;17.70;94515.00;;;;10344117;28;45379;-77
2022/02/05 12:59:52;;;;;;;1.75;0.50;;;17.70;28.50;17.70;94486.00;;;;10342838;28;46803;-76
2022/02/05 13:04:55;;;;;;;2.15;0.40;;;17.70;28.60;17.70;94494.00;;;;10341613;28;47175;-76
2022/02/05 13:10:06;;;;;;;0.95;0.38;;;17.70;29.20;17.70;94486.00;;;;10358184;28;47220;-77
2022/02/05 13:15:26;;;;;;;1.05;0.50;;;17.70;28.50;17.80;94473.00;;;;10358995;28;48069;-73
2022/02/05 13:36:13;;;;;;;0.73;0.40;;;18.10;28.50;18.10;94467.00;;;;10380742;28;45312;-76
2022/02/05 13:41:14;;;;;;;1.15;0.22;;;18.20;28.70;18.20;94463.00;;;;10366793;28;47016;-76
2022/02/05 13:46:21;;;;;;;1.52;0.50;;;18.30;29.80;18.30;94475.00;;;;10381872;28;46214;-76
2022/02/05 13:51:21;;;;;;;;;;;18.40;30.20;18.40;94473.00;;;;10383410;28;45992;-73
2022/02/05 13:56:23;;;;;;;2.67;0.55;;;18.50;30.10;18.40;94478.00;;;;10397661;28;47850;-76
2022/02/05 14:01:32;;;;;;;3.33;0.50;;;18.60;30.10;18.40;94484.00;;;;10329922;28;48695;-75
2022/02/05 14:06:54;;;;;;;3.67;0.70;;;18.60;30.00;18.50;94489.00;;;;10321323;28;47465;-76
2022/02/05 14:11:57;;;;;;;1.42;0.50;;;18.70;31.20;18.60;94470.00;;;;10357364;28;45366;-76
2022/02/05 14:16:58;;;;;;;4.00;0.80;;;18.70;31.40;18.60;94467.00;;;;10321543;28;47100;-74
2022/02/05 14:21:59;;;;;;;6.35;0.65;;;18.80;31.90;18.70;94479.00;;;;10355158;28;47108;-74
2022/02/05 14:27:17;;;;;;;20.75;7.95;;;18.80;32.70;18.70;94475.00;;;;10344129;28;45704;-75
2022/02/05 14:32:27;;;;;;;10.80;3.88;;;18.90;32.50;18.80;94472.00;;;;10322725;28;47213;-74
2022/02/05 14:42:47;;;;;;;6.95;1.95;;;18.90;33.00;18.80;94477.00;;;;10382664;28;45136;-77
2022/02/05 14:47:48;;;;;;;3.75;1.40;;;18.90;32.60;18.70;94477.00;;;;10340210;28;47410;-75
2022/02/05 14:52:49;;;;;;;5.15;1.50;;;18.90;32.50;18.70;94478.00;;;;10355301;28;48159;-79
2022/02/05 14:57:49;;;;;;;53.13;20.42;;;18.90;33.00;18.80;94472.00;;;;10322030;28;47302;-75
2022/02/05 15:02:50;;;;;;;31.00;10.95;;;19.00;32.50;18.80;94469.00;;;;10337332;28;45233;-75
2022/02/05 15:07:51;;;;;;;22.60;8.45;;;18.90;32.10;18.80;94469.00;;;;10353579;28;46864;-75
2022/02/05 15:13:02;;;;;;;16.35;6.43;;;18.90;31.80;18.70;94480.00;;;;10341397;28;46471;-73
2022/02/05 15:18:04;;;;;;;15.05;5.10;;;18.90;31.70;18.70;94476.00;;;;10337300;28;47126;-75
2022/02/05 15:23:07;;;;;;;12.02;4.60;;;18.90;31.50;18.70;94487.00;;;;10367750;28;47180;-76
2022/02/05 15:28:08;;;;;;;8.35;3.47;;;18.80;31.40;18.70;94483.00;;;;10361803;28;45387;-76
2022/02/05 15:33:08;;;;;;;8.18;3.00;;;18.80;31.30;18.80;94484.00;;;;10343769;28;45373;-75
2022/02/05 15:38:15;;;;;;;8.52;2.50;;;18.80;31.20;18.80;94479.00;;;;10344506;28;45355;-75
2022/02/05 15:48:35;;;;;;;5.50;2.30;;;18.90;31.00;18.80;94475.00;;;;10346348;28;45268;-75
2022/02/05 15:53:44;;;;;;;6.18;1.60;;;18.90;30.90;18.80;94473.00;;;;10327476;28;47050;-76
2022/02/05 15:58:47;;;;;;;4.32;1.23;;;18.90;31.10;18.80;94486.00;;;;10326994;28;47307;-75
2022/02/05 16:03:48;;;;;;;4.00;1.52;;;18.90;31.00;18.80;94487.00;;;;10328008;28;47025;-75
2022/02/05 16:08:49;;;;;;;3.03;1.10;;;18.90;30.90;18.80;94476.00;;;;10302491;28;47101;-75
2022/02/05 16:13:49;;;;;;;3.83;1.10;;;18.80;30.70;18.80;94472.00;;;;10303652;28;45650;-77
2022/02/05 16:18:53;;;;;;;7.55;1.15;;;18.80;30.70;18.80;94471.00;;;;10306357;28;45493;-83
2022/02/05 16:23:54;;;;;;;8.50;1.08;;;18.90;31.10;18.90;94477.00;;;;10361732;28;47210;-78
2022/02/05 16:28:54;;;;;;;5.05;0.82;;;19.00;31.60;18.90;94480.00;;;;10375410;28;47579;-80
2022/02/05 16:34:01;;;;;;;2.65;0.73;;;19.10;31.30;19.00;94468.00;;;;10371788;28;48222;-79
2022/02/05 16:39:02;;;;;;;7.18;1.30;;;19.20;31.50;19.10;94486.00;;;;10367528;28;46966;-78
2022/02/05 16:44:03;;;;;;;9.98;2.30;;;19.20;31.10;19.10;94490.00;;;;10369830;28;47188;-74
2022/02/05 16:49:06;;;;;;;7.93;1.60;;;19.30;31.70;19.10;94476.00;;;;10364818;28;47167;-76
2022/02/05 16:54:07;;;;;;;16.92;1.90;;;19.40;31.30;19.20;94495.00;;;;10365184;28;46908;-77
2022/02/05 16:59:07;;;;;;;12.80;1.48;;;19.40;32.90;19.20;94502.00;;;;10364110;28;48147;-72
2022/02/05 17:04:09;;;;;;;3.67;1.05;;;19.40;32.20;19.20;94513.00;;;;10366518;28;47567;-75
2022/02/05 17:09:12;;;;;;;10.60;1.48;;;19.50;31.70;19.30;94509.00;;;;10368037;28;47257;-72
2022/02/05 17:14:12;;;;;;;5.38;1.08;;;19.50;31.90;19.30;94509.00;;;;10399771;28;45359;-75
2022/02/05 17:19:13;;;;;;;4.22;1.13;;;19.50;31.90;19.30;94519.00;;;;10382494;28;45143;-73
2022/02/05 17:24:14;;;;;;;5.22;0.93;;;19.60;31.90;19.30;94517.00;;;;10365518;28;48335;-73
2022/02/05 17:29:14;;;;;;;3.53;1.30;;;19.60;31.80;19.30;94519.00;;;;10365635;28;46681;-77
2022/02/05 17:34:15;;;;;;;6.00;1.15;;;19.60;31.90;19.40;94529.00;;;;10365797;28;48517;-76
2022/02/05 17:39:16;;;;;;;2.78;0.90;;;19.60;31.80;19.40;94534.00;;;;10364952;28;47091;-75
2022/02/05 17:44:16;;;;;;;6.50;2.15;;;19.70;31.40;19.40;94535.00;;;;10382134;28;45574;-80
2022/02/05 17:49:18;;;;;;;3.92;1.40;;;19.70;31.20;19.50;94557.00;;;;10364169;28;46880;-78
2022/02/05 17:54:19;;;;;;;1.58;0.82;;;19.70;31.40;19.50;94539.00;;;;10364908;28;47327;-77
2022/02/05 17:59:20;;;;;;;2.15;0.70;;;19.70;31.40;19.50;94545.00;;;;10364739;28;48685;-76
2022/02/05 18:04:22;;;;;;;4.55;1.02;;;19.80;31.50;19.50;94548.00;;;;10365468;28;47330;-75
2022/02/05 18:09:52;;;;;;;1.70;0.93;;;19.80;32.50;19.50;94556.00;;;;10381420;28;45331;-76
2022/02/05 18:15:03;;;;;;;2.33;0.88;;;19.80;32.60;19.50;94555.00;;;;10384149;28;45150;-75
2022/02/05 18:20:05;;;;;;;6.30;0.80;;;19.80;33.00;19.60;94549.00;;;;10365742;28;47083;-80
2022/02/05 18:25:07;;;;;;;3.38;0.70;;;19.80;33.70;19.60;94539.00;;;;10363680;28;48212;-77
2022/02/05 18:30:10;;;;;;;7.38;1.10;;;19.80;33.40;19.50;94556.00;;;;10380131;28;48158;-75
2022/02/05 18:35:10;;;;;;;3.25;1.33;;;19.80;31.40;19.30;94540.00;;;;10363951;28;46922;-75
2022/02/05 18:40:18;;;;;;;3.42;1.13;;;19.60;29.40;19.20;94548.00;;;;10363433;28;47281;-76
2022/02/05 18:45:24;;;;;;;2.22;1.00;;;19.50;28.70;19.20;94559.00;;;;10364216;28;48154;-76
2022/02/05 18:50:25;;;;;;;1.65;0.90;;;19.30;27.80;19.10;94544.00;;;;10380706;28;45566;-76
2022/02/05 18:55:26;;;;;;;1.92;0.80;;;19.20;27.70;19.00;94556.00;;;;10397362;28;45364;-75
2022/02/05 19:00:31;;;;;;;2.67;0.80;;;19.10;27.30;18.90;94552.00;;;;10379262;28;46244;-79
2022/02/05 19:11:17;;;;;;;1.38;0.75;;;18.80;27.10;18.80;94534.00;;;;10351583;28;45340;-75
2022/02/05 19:21:51;;;;;;;2.22;0.70;;;18.80;27.20;18.80;94538.00;;;;10295549;28;45209;-75
2022/02/05 19:26:57;;;;;;;3.45;0.70;;;18.80;27.80;18.80;94541.00;;;;10321516;28;48142;-74
2022/02/05 19:31:57;;;;;;;2.30;0.80;;;18.80;27.60;18.80;94550.00;;;;10323610;28;47729;-75
2022/02/05 19:36:58;;;;;;;1.95;0.63;;;18.70;27.50;18.70;94547.00;;;;10322150;28;48332;-74
2022/02/05 19:41:59;;;;;;;1.88;0.77;;;18.70;27.40;18.70;94555.00;;;;10322715;28;47338;-75
2022/02/05 19:47:04;;;;;;;2.28;0.60;;;18.70;27.40;18.70;94543.00;;;;10322096;28;46872;-75
2022/02/05 19:52:05;;;;;;;1.77;0.60;;;18.60;27.20;18.60;94551.00;;;;10321966;28;47505;-74
2022/02/05 19:57:05;;;;;;;2.55;1.00;;;18.60;27.10;18.60;94537.00;;;;10320744;28;47209;-75
2022/02/05 20:02:07;;;;;;;7.60;3.20;;;18.50;26.60;18.50;94536.00;;;;10320624;28;47495;-74
2022/02/05 20:07:21;;;;;;;5.60;2.30;;;18.50;26.90;18.50;94561.00;;;;10320991;28;47395;-75
2022/02/05 20:12:21;;;;;;;3.30;1.52;;;18.40;27.10;18.50;94561.00;;;;10341822;28;46906;-74
2022/02/05 20:17:23;;;;;;;2.90;1.10;;;18.40;27.00;18.50;94560.00;;;;10343904;28;45447;-74
2022/02/05 20:22:23;;;;;;;3.08;0.93;;;18.40;27.30;18.40;94548.00;;;;10365979;28;45154;-74
2022/02/05 20:27:24;;;;;;;2.63;0.90;;;18.30;27.20;18.40;94558.00;;;;10384689;28;47359;-74
2022/02/05 20:32:25;;;;;;;3.20;0.70;;;18.30;26.70;18.40;94560.00;;;;10368075;28;48688;-74
2022/02/05 20:37:25;;;;;;;1.63;0.70;;;18.30;26.90;18.30;94558.00;;;;10367980;28;47073;-75
2022/02/05 20:42:26;;;;;;;1.88;0.73;;;18.20;26.90;18.30;94531.00;;;;10385132;28;45409;-75
2022/02/05 20:47:27;;;;;;;1.00;0.52;;;18.20;26.60;18.30;94535.00;;;;10367821;28;46978;-74
2022/02/05 20:52:28;;;;;;;1.67;0.65;;;18.20;26.80;18.20;94543.00;;;;10367638;28;47307;-75
2022/02/05 20:57:31;;;;;;;2.53;0.90;;;18.10;26.90;18.20;94540.00;;;;10367615;28;47217;-75
2022/02/05 21:02:33;;;;;;;2.38;0.52;;;18.10;27.00;18.20;94552.00;;;;10384332;28;45557;-75
2022/02/05 21:07:33;;;;;;;2.03;0.50;;;18.10;27.00;18.20;94547.00;;;;10367529;28;47753;-75
2022/02/05 21:12:35;;;;;;;1.73;0.55;;;18.00;26.80;18.20;94538.00;;;;10367768;28;46765;-74
2022/02/05 21:17:36;;;;;;;3.58;0.80;;;18.00;26.90;18.10;94544.00;;;;10367231;28;46930;-75
2022/02/05 21:22:36;;;;;;;3.90;0.95;;;18.00;26.60;18.10;94534.00;;;;10344164;28;47229;-73
2022/02/05 21:27:51;;;;;;;2.88;0.88;;;17.90;26.70;18.10;94539.00;;;;10326584;28;47383;-74
2022/02/05 21:33:01;;;;;;;1.77;0.77;;;17.90;26.20;18.00;94531.00;;;;10344781;28;45187;-74
2022/02/05 21:38:01;;;;;;;2.78;0.63;;;17.90;26.30;18.00;94531.00;;;;10327481;28;48240;-74
2022/02/05 21:43:02;;;;;;;2.47;0.70;;;17.80;26.40;18.00;94541.00;;;;10325770;28;48445;-73
2022/02/05 21:48:03;;;;;;;1.33;0.60;;;17.80;26.30;17.90;94525.00;;;;10325446;28;47257;-75
2022/02/05 21:53:05;;;;;;;2.47;0.85;;;17.70;26.70;17.90;94520.00;;;;10325102;28;46866;-75
2022/02/05 21:58:12;;;;;;;1.38;0.50;;;17.70;26.20;17.90;94532.00;;;;10325686;28;47422;-75
2022/02/05 22:03:22;;;;;;;;;;;17.70;26.40;17.80;94511.00;;;;10341922;28;45432;-74
2022/02/05 22:08:23;;;;;;;1.50;0.45;;;17.60;26.30;17.80;94515.00;;;;10325214;28;47275;-74
2022/02/05 22:13:24;;;;;;;2.15;0.60;;;17.60;26.30;17.80;94514.00;;;;10323676;28;47560;-74
2022/02/05 22:18:24;;;;;;;3.22;0.50;;;17.60;26.30;17.70;94526.00;;;;10323656;28;47261;-74
2022/02/05 22:23:27;;;;;;;1.65;0.60;;;17.50;26.00;17.70;94521.00;;;;10323211;28;48347;-74
2022/02/05 22:28:27;;;;;;;1.48;0.40;;;17.50;26.00;17.70;94515.00;;;;10340229;28;45316;-74
2022/02/05 22:33:30;;;;;;;1.52;0.60;;;17.50;26.10;17.70;94490.00;;;;10338940;28;47028;-74
2022/02/05 22:38:31;;;;;;;1.48;0.65;;;17.50;26.20;17.60;94503.00;;;;10323168;28;47144;-74
2022/02/05 22:43:32;;;;;;;1.50;0.60;;;17.40;26.20;17.60;94509.00;;;;10322730;28;47191;-74
2022/02/05 22:48:33;;;;;;;1.30;0.60;;;17.40;26.50;17.60;94489.00;;;;10322785;28;47069;-74
2022/02/05 22:53:34;;;;;;;3.00;0.80;;;17.40;26.20;17.60;94482.00;;;;10322321;28;47223;-74
2022/02/05 22:58:34;;;;;;;1.30;0.65;;;17.40;26.30;17.60;94492.00;;;;10322444;28;47139;-74
2022/02/05 23:03:36;;;;;;;4.82;0.57;;;17.30;26.70;17.60;94494.00;;;;10322063;28;48242;-74
2022/02/05 23:08:49;;;;;;;1.35;0.40;;;17.40;26.60;17.60;94496.00;;;;10321428;28;47914;-74
2022/02/05 23:45:14;;;;;;;3.97;0.75;;;17.30;27.60;17.60;94483.00;;;;10397421;28;45113;-74
2022/02/05 23:50:16;;;;;;;3.13;0.60;;;17.30;27.40;17.50;94474.00;;;;10368988;28;47090;-74
2022/02/05 23:55:16;;;;;;;1.98;0.50;;;17.30;27.70;17.50;94476.00;;;;10368619;28;48172;-74
